Ubc Bremen — P3ZA7 — position and weather

sailwx.info

Track history (hours):
 
Tides and Currents Weather Stations Pressure Air Temp Water Temp Dewpoint Dewpoint Depression Visibility Wind Speed Wind Dir Waves Ship Positions

Ubc Bremen

Last reported at 2017-Jan-13 18:15 UTC. Time now 2017-Jan-22 22:22 UTC.
Position N 19°36' W 095°46'.
Warning: this ship's position is 9 days out of date.

Length 154 m; draft 8.8 m.

Type: Cargo ship. MMSI: 21260200.

Date/timePositionNaut miles runAvg speedWind from/ knotsBaromVisibWave heightAir tempDewpointWater temp
2017-Jan-13 18:15N 19°36' W 095°46'913.3
2017-Jan-13 17:33N 19°29' W 095°51'1313.0
2017-Jan-13 16:33N 19°17' W 095°58'1110.7
2017-Jan-13 15:33N 19°07' W 096°02'0 0.0
2017-Jan-13 14:23N 19°07' W 096°02'0 0.0
2017-Jan-13 13:23N 19°07' W 096°02'0 0.0
2017-Jan-13 12:28N 19°07' W 096°02'0 0.0
2017-Jan-13 11:28N 19°07' W 096°02'0 0.0
2017-Jan-13 10:22N 19°07' W 096°02'0 0.1
2017-Jan-13 09:28N 19°07' W 096°02'0 0.0
2017-Jan-13 08:28N 19°07' W 096°02'0 0.0
2017-Jan-13 07:31N 19°07' W 096°02'0 0.0
2017-Jan-13 06:31N 19°07' W 096°02'0 0.0
2017-Jan-13 05:31N 19°07' W 096°02'0 0.0
2017-Jan-13 04:31N 19°07' W 096°02'0 0.0
2017-Jan-13 03:31N 19°07' W 096°02'0 0.0
2017-Jan-13 02:31N 19°07' W 096°02'0 0.0
2017-Jan-13 01:30N 19°07' W 096°02'0 0.0
2017-Jan-13 00:31N 19°07' W 096°02'0 0.0
2017-Jan-12 23:31N 19°07' W 096°02'0 0.0
2017-Jan-12 22:31N 19°07' W 096°02'0 0.0
2017-Jan-12 21:31N 19°07' W 096°02'0 0.0
2017-Jan-12 20:31N 19°07' W 096°02'0 0.0
2017-Jan-12 19:31N 19°07' W 096°02'0 0.0
2017-Jan-12 18:20N 19°07' W 096°02'1 0.7
2017-Jan-12 17:33N 19°08' W 096°03'7 7.0
2017-Jan-12 16:34N 19°13' W 096°08'0 0.3
2017-Jan-12 15:28N 19°13' W 096°08'0 0.0
2017-Jan-12 14:31N 19°13' W 096°08'0 0.0
2017-Jan-12 13:31N 19°13' W 096°08'0 0.0
2017-Jan-12 12:31N 19°13' W 096°08'0 0.0
2017-Jan-12 11:31N 19°13' W 096°08'0 0.0
2017-Jan-12 10:28N 19°13' W 096°08'0 0.0
2017-Jan-12 09:31N 19°13' W 096°08'0 0.0
2017-Jan-12 08:28N 19°13' W 096°08'0 0.0
2017-Jan-12 07:31N 19°13' W 096°08'0 0.0
2017-Jan-12 06:31N 19°13' W 096°08'0 0.0
2017-Jan-12 05:31N 19°13' W 096°08'0 0.0
2017-Jan-12 04:31N 19°13' W 096°08'0 0.0
2017-Jan-12 03:31N 19°13' W 096°08'0 0.0
2017-Jan-12 02:33N 19°13' W 096°08'0 0.1
2017-Jan-12 01:30N 19°13' W 096°08'0 0.1
2017-Jan-12 00:33N 19°13' W 096°08'0 0.0
2017-Jan-11 23:33N 19°13' W 096°08'0 0.0
2017-Jan-11 22:30N 19°13' W 096°08'0 0.0
2017-Jan-11 21:29N 19°13' W 096°08'0 0.0
2017-Jan-11 20:33N 19°13' W 096°08'0 0.0
2017-Jan-11 19:33N 19°13' W 096°08'0 0.0
2017-Jan-11 18:32N 19°13' W 096°08'0 0.0
2017-Jan-11 17:31N 19°13' W 096°08'0 0.0
2017-Jan-11 16:31N 19°13' W 096°08'0 0.0
2017-Jan-11 15:31N 19°13' W 096°08'0 0.0
2017-Jan-11 14:31N 19°13' W 096°08'0 0.0
2017-Jan-11 13:28N 19°13' W 096°08'0 0.0
2017-Jan-11 12:32N 19°13' W 096°08'0 0.0
2017-Jan-11 11:32N 19°13' W 096°08'0 0.0
2017-Jan-11 10:29N 19°13' W 096°08'0 0.0
2017-Jan-11 09:32N 19°13' W 096°08'0 0.0
2017-Jan-11 08:32N 19°13' W 096°08'0 0.0
2017-Jan-11 07:32N 19°13' W 096°08'0 0.0
2017-Jan-11 06:29N 19°13' W 096°08'0 0.0
2017-Jan-11 05:32N 19°13' W 096°08'0 0.0
2017-Jan-11 04:32N 19°13' W 096°08'0 0.0
2017-Jan-11 03:32N 19°13' W 096°08'0 0.0
2017-Jan-11 02:32N 19°13' W 096°08'0 0.0
2017-Jan-11 01:32N 19°13' W 096°08'0 0.0
2017-Jan-11 00:32N 19°13' W 096°08'0 0.0
2017-Jan-10 23:29N 19°13' W 096°08'0 0.0
2017-Jan-10 22:32N 19°13' W 096°08'0 0.0
2017-Jan-10 21:32N 19°13' W 096°08'0 0.0
2017-Jan-10 20:29N 19°13' W 096°08'0 0.0
2017-Jan-10 19:32N 19°13' W 096°08'0 0.0
2017-Jan-10 18:32N 19°13' W 096°08'0 0.0
2017-Jan-10 17:32N 19°13' W 096°08'3 2.9
2017-Jan-10 16:34N 19°12' W 096°05'6 5.5
2017-Jan-10 15:30N 19°07' W 096°02'0 0.0
2017-Jan-10 14:30N 19°07' W 096°02'0 0.0
2017-Jan-10 13:30N 19°07' W 096°02'0 0.0
2017-Jan-10 12:30N 19°07' W 096°02'0 0.0
2017-Jan-10 11:30N 19°07' W 096°02'0 0.0
2017-Jan-10 10:30N 19°07' W 096°02'0 0.0
2017-Jan-10 09:28N 19°07' W 096°02'0 0.0
2017-Jan-10 08:28N 19°07' W 096°02'0 0.0
2017-Jan-10 07:28N 19°07' W 096°02'0 0.0
2017-Jan-10 06:28N 19°07' W 096°02'0 0.0
2017-Jan-10 05:16N 19°07' W 096°02'0 0.0
2017-Jan-10 04:22N 19°07' W 096°02'0 0.0
2017-Jan-10 03:28N 19°07' W 096°02'0 0.0
2017-Jan-10 02:28N 19°07' W 096°02'0 0.0
2017-Jan-10 01:28N 19°07' W 096°02'0 0.0
2017-Jan-10 00:28N 19°07' W 096°02'0 0.0
2017-Jan-09 23:28N 19°07' W 096°02'0 0.0
2017-Jan-09 22:28N 19°07' W 096°02'0 0.0
2017-Jan-09 21:28N 19°07' W 096°02'0 0.0
2017-Jan-09 20:28N 19°07' W 096°02'0 0.0
2017-Jan-09 19:28N 19°07' W 096°02'0 0.0
2017-Jan-09 18:28N 19°07' W 096°02'0 0.0
2017-Jan-09 17:28N 19°07' W 096°02'0 0.0
2017-Jan-09 16:28N 19°07' W 096°02'0 0.0
2017-Jan-09 15:33N 19°07' W 096°02'0 0.0
2017-Jan-09 14:33N 19°07' W 096°02'0 0.0
2017-Jan-09 13:33N 19°07' W 096°02'0 0.0
2017-Jan-09 12:33N 19°07' W 096°02'0 0.0
2017-Jan-09 11:33N 19°07' W 096°02'0 0.0
2017-Jan-09 10:33N 19°07' W 096°02'0 0.0
2017-Jan-09 09:33N 19°07' W 096°02'0 0.0
2017-Jan-09 08:27N 19°07' W 096°02'0 0.0
2017-Jan-09 07:27N 19°07' W 096°02'0 0.0
2017-Jan-09 06:27N 19°07' W 096°02'0 0.0
2017-Jan-09 05:30N 19°07' W 096°02'0 0.0
2017-Jan-09 04:33N 19°07' W 096°02'0 0.0
2017-Jan-09 03:33N 19°07' W 096°02'0 0.0
2017-Jan-09 02:26N 19°07' W 096°02'0 0.0
2017-Jan-09 01:28N 19°07' W 096°02'0 0.0
2017-Jan-09 00:28N 19°07' W 096°02'0 0.0
2017-Jan-08 23:28N 19°07' W 096°02'0 0.0
2017-Jan-08 22:24N 19°07' W 096°02'0 0.0
2017-Jan-08 21:30N 19°07' W 096°02'3 3.5
2017-Jan-08 20:33N 19°10' W 095°60'1212.4
2017-Jan-08 19:33N 19°22' W 096°00'1211.8
2017-Jan-08 18:31N 19°35' W 096°00'13 0.5
2017-Jan-07 16:22N 19°28' W 095°48'3 1.8
2017-Jan-07 14:25N 19°28' W 095°52'2 2.1
2017-Jan-07 13:33N 19°28' W 095°54'1 1.0
2017-Jan-07 12:33N 19°28' W 095°55'1 1.4
2017-Jan-07 11:31N 19°28' W 095°56'1 1.1
2017-Jan-07 10:33N 19°28' W 095°57'1 0.9
2017-Jan-07 09:33N 19°27' W 095°57'2 2.3
2017-Jan-07 08:33N 19°25' W 095°58'4 4.3
2017-Jan-07 07:33N 19°20' W 095°58'7 6.4
2017-Jan-07 06:32N 19°14' W 095°58'7 7.1
2017-Jan-07 05:31N 19°07' W 096°01'1 0.5
2017-Jan-07 04:25N 19°07' W 096°02'0 0.0
2017-Jan-07 03:31N 19°07' W 096°02'0 0.1
2017-Jan-07 02:25N 19°07' W 096°02'0 0.0
2017-Jan-07 01:31N 19°07' W 096°02'0 0.0
2017-Jan-07 00:31N 19°07' W 096°02'0 0.0
2017-Jan-06 23:31N 19°07' W 096°02'0 0.0
2017-Jan-06 22:33N 19°07' W 096°02'0 0.0
2017-Jan-06 21:33N 19°07' W 096°02'0 0.0
2017-Jan-06 20:33N 19°07' W 096°02'0 0.1
2017-Jan-06 19:33N 19°07' W 096°02'0 0.1
2017-Jan-06 18:21N 19°07' W 096°02'0 0.0
2017-Jan-06 17:33N 19°07' W 096°02'0 0.0
2017-Jan-06 16:33N 19°07' W 096°02'0 0.0
2017-Jan-06 15:29N 19°07' W 096°02'0 0.0
2017-Jan-06 14:29N 19°07' W 096°02'0 0.0
2017-Jan-06 13:29N 19°07' W 096°02'0 0.1
2017-Jan-06 12:29N 19°07' W 096°02'0 0.0
2017-Jan-06 11:29N 19°07' W 096°02'0 0.0
2017-Jan-06 10:29N 19°07' W 096°02'0 0.0
2017-Jan-06 09:25N 19°07' W 096°02'0 0.0
2017-Jan-06 08:27N 19°07' W 096°02'0 0.0
2017-Jan-06 07:33N 19°07' W 096°02'0 0.0
2017-Jan-06 06:33N 19°07' W 096°02'0 0.0
2017-Jan-06 05:26N 19°07' W 096°02'0 0.0
2017-Jan-06 04:31N 19°07' W 096°02'0 0.0
2017-Jan-06 03:29N 19°07' W 096°02'0 0.0
2017-Jan-06 02:17N 19°07' W 096°02'0 0.0
2017-Jan-06 01:29N 19°07' W 096°02'0 0.0
2017-Jan-06 00:29N 19°07' W 096°02'0 0.0
2017-Jan-05 23:29N 19°07' W 096°02'0 0.0
2017-Jan-05 22:23N 19°07' W 096°02'0 0.0
2017-Jan-05 21:29N 19°07' W 096°02'0 0.0
2017-Jan-05 20:29N 19°07' W 096°02'0 0.0
2017-Jan-05 19:17N 19°07' W 096°02'0 0.1
2017-Jan-05 18:23N 19°07' W 096°02'0 0.0
2017-Jan-05 17:29N 19°07' W 096°02'0 0.0
2017-Jan-05 16:29N 19°07' W 096°02'0 0.0
2017-Jan-05 15:11N 19°07' W 096°02'0 0.0
2017-Jan-05 13:29N 19°07' W 096°02'0 0.0
2017-Jan-05 12:23N 19°07' W 096°02'0 0.0
2017-Jan-05 11:29N 19°07' W 096°02'0 0.0
2017-Jan-05 10:31N 19°07' W 096°02'0 0.0
2017-Jan-05 09:31N 19°07' W 096°02'0 0.0
2017-Jan-05 08:32N 19°07' W 096°02'0 0.0
2017-Jan-05 07:20N 19°07' W 096°02'0 0.1
2017-Jan-05 06:32N 19°07' W 096°02'0 0.0
2017-Jan-05 05:33N 19°07' W 096°02'0 0.0
2017-Jan-05 04:27N 19°07' W 096°02'0 0.0
2017-Jan-05 03:27N 19°07' W 096°02'0 0.0
2017-Jan-05 02:33N 19°07' W 096°02'0 0.0
2017-Jan-05 01:33N 19°07' W 096°02'0 0.0
2017-Jan-05 00:28N 19°07' W 096°02'0 0.0
2017-Jan-04 23:28N 19°07' W 096°02'0 0.0
2017-Jan-04 22:31N 19°07' W 096°02'0 0.0
2017-Jan-04 21:28N 19°07' W 096°02'0 0.0
2017-Jan-04 20:22N 19°07' W 096°02'0 0.0
2017-Jan-04 19:28N 19°07' W 096°02'0 0.0
2017-Jan-04 18:28N 19°07' W 096°02'0 0.0
2017-Jan-04 17:22N 19°07' W 096°02'0 0.0
2017-Jan-04 16:28N 19°07' W 096°02'0 0.0
2017-Jan-04 15:10N 19°07' W 096°02'0 0.0
2017-Jan-04 14:28N 19°07' W 096°02'0 0.0
2017-Jan-04 13:28N 19°07' W 096°02'0 0.0
2017-Jan-04 12:28N 19°07' W 096°02'0 0.0
2017-Jan-04 11:30N 19°07' W 096°02'0 0.0
2017-Jan-04 10:29N 19°07' W 096°02'0 0.0
2017-Jan-04 09:28N 19°07' W 096°02'0 0.1
2017-Jan-04 08:24N 19°07' W 096°02'0 0.0
2017-Jan-04 07:30N 19°07' W 096°02'0 0.0
2017-Jan-04 06:33N 19°07' W 096°02'0 0.0
2017-Jan-04 05:33N 19°07' W 096°02'0 0.0
2017-Jan-04 04:33N 19°07' W 096°02'0 0.0
2017-Jan-04 03:17N 19°07' W 096°02'0 0.0
2017-Jan-04 02:28N 19°07' W 096°02'0 0.0
2017-Jan-04 01:22N 19°07' W 096°02'0 0.1
2017-Jan-04 00:33N 19°07' W 096°02'7 6.6
2017-Jan-03 23:33N 19°12' W 096°06'2 2.4
2017-Jan-03 22:33N 19°13' W 096°08'0 0.1
2017-Jan-03 21:32N 19°13' W 096°08'0 0.1
2017-Jan-03 20:32N 19°13' W 096°08'0 0.0
2017-Jan-03 19:29N 19°13' W 096°08'0 0.1
2017-Jan-03 18:32N 19°13' W 096°08'  
Track history (hours):
 
Tides and Currents Weather Stations Pressure Air Temp Water Temp Dewpoint Dewpoint Depression Visibility Wind Speed Wind Dir Waves Ship Positions

Ubc Bremen

Last reported at 2017-Jan-13 18:15 UTC. Time now 2017-Jan-22 22:22 UTC.
Position N 19°36' W 095°46'.
Warning: this ship's position is 9 days out of date.

Length 154 m; draft 8.8 m.

Type: Cargo ship. MMSI: 21260200.

Date/timePositionNaut miles runAvg speedWind from/ knotsBaromVisibWave heightAir tempDewpointWater temp
2017-Jan-13 18:15N 19°36' W 095°46'913.3
2017-Jan-13 17:33N 19°29' W 095°51'1313.0
2017-Jan-13 16:33N 19°17' W 095°58'1110.7
2017-Jan-13 15:33N 19°07' W 096°02'0 0.0
2017-Jan-13 14:23N 19°07' W 096°02'0 0.0
2017-Jan-13 13:23N 19°07' W 096°02'0 0.0
2017-Jan-13 12:28N 19°07' W 096°02'0 0.0
2017-Jan-13 11:28N 19°07' W 096°02'0 0.0
2017-Jan-13 10:22N 19°07' W 096°02'0 0.1
2017-Jan-13 09:28N 19°07' W 096°02'0 0.0
2017-Jan-13 08:28N 19°07' W 096°02'0 0.0
2017-Jan-13 07:31N 19°07' W 096°02'0 0.0
2017-Jan-13 06:31N 19°07' W 096°02'0 0.0
2017-Jan-13 05:31N 19°07' W 096°02'0 0.0
2017-Jan-13 04:31N 19°07' W 096°02'0 0.0
2017-Jan-13 03:31N 19°07' W 096°02'0 0.0
2017-Jan-13 02:31N 19°07' W 096°02'0 0.0
2017-Jan-13 01:30N 19°07' W 096°02'0 0.0
2017-Jan-13 00:31N 19°07' W 096°02'0 0.0
2017-Jan-12 23:31N 19°07' W 096°02'0 0.0
2017-Jan-12 22:31N 19°07' W 096°02'0 0.0
2017-Jan-12 21:31N 19°07' W 096°02'0 0.0
2017-Jan-12 20:31N 19°07' W 096°02'0 0.0
2017-Jan-12 19:31N 19°07' W 096°02'0 0.0
2017-Jan-12 18:20N 19°07' W 096°02'1 0.7
2017-Jan-12 17:33N 19°08' W 096°03'7 7.0
2017-Jan-12 16:34N 19°13' W 096°08'0 0.3
2017-Jan-12 15:28N 19°13' W 096°08'0 0.0
2017-Jan-12 14:31N 19°13' W 096°08'0 0.0
2017-Jan-12 13:31N 19°13' W 096°08'0 0.0
2017-Jan-12 12:31N 19°13' W 096°08'0 0.0
2017-Jan-12 11:31N 19°13' W 096°08'0 0.0
2017-Jan-12 10:28N 19°13' W 096°08'0 0.0
2017-Jan-12 09:31N 19°13' W 096°08'0 0.0
2017-Jan-12 08:28N 19°13' W 096°08'0 0.0
2017-Jan-12 07:31N 19°13' W 096°08'0 0.0
2017-Jan-12 06:31N 19°13' W 096°08'0 0.0
2017-Jan-12 05:31N 19°13' W 096°08'0 0.0
2017-Jan-12 04:31N 19°13' W 096°08'0 0.0
2017-Jan-12 03:31N 19°13' W 096°08'0 0.0
2017-Jan-12 02:33N 19°13' W 096°08'0 0.1
2017-Jan-12 01:30N 19°13' W 096°08'0 0.1
2017-Jan-12 00:33N 19°13' W 096°08'0 0.0
2017-Jan-11 23:33N 19°13' W 096°08'0 0.0
2017-Jan-11 22:30N 19°13' W 096°08'0 0.0
2017-Jan-11 21:29N 19°13' W 096°08'0 0.0
2017-Jan-11 20:33N 19°13' W 096°08'0 0.0
2017-Jan-11 19:33N 19°13' W 096°08'0 0.0
2017-Jan-11 18:32N 19°13' W 096°08'0 0.0
2017-Jan-11 17:31N 19°13' W 096°08'0 0.0
2017-Jan-11 16:31N 19°13' W 096°08'0 0.0
2017-Jan-11 15:31N 19°13' W 096°08'0 0.0
2017-Jan-11 14:31N 19°13' W 096°08'0 0.0
2017-Jan-11 13:28N 19°13' W 096°08'0 0.0
2017-Jan-11 12:32N 19°13' W 096°08'0 0.0
2017-Jan-11 11:32N 19°13' W 096°08'0 0.0
2017-Jan-11 10:29N 19°13' W 096°08'0 0.0
2017-Jan-11 09:32N 19°13' W 096°08'0 0.0
2017-Jan-11 08:32N 19°13' W 096°08'0 0.0
2017-Jan-11 07:32N 19°13' W 096°08'0 0.0
2017-Jan-11 06:29N 19°13' W 096°08'0 0.0
2017-Jan-11 05:32N 19°13' W 096°08'0 0.0
2017-Jan-11 04:32N 19°13' W 096°08'0 0.0
2017-Jan-11 03:32N 19°13' W 096°08'0 0.0
2017-Jan-11 02:32N 19°13' W 096°08'0 0.0
2017-Jan-11 01:32N 19°13' W 096°08'0 0.0
2017-Jan-11 00:32N 19°13' W 096°08'0 0.0
2017-Jan-10 23:29N 19°13' W 096°08'0 0.0
2017-Jan-10 22:32N 19°13' W 096°08'0 0.0
2017-Jan-10 21:32N 19°13' W 096°08'0 0.0
2017-Jan-10 20:29N 19°13' W 096°08'0 0.0
2017-Jan-10 19:32N 19°13' W 096°08'0 0.0
2017-Jan-10 18:32N 19°13' W 096°08'0 0.0
2017-Jan-10 17:32N 19°13' W 096°08'3 2.9
2017-Jan-10 16:34N 19°12' W 096°05'6 5.5
2017-Jan-10 15:30N 19°07' W 096°02'0 0.0
2017-Jan-10 14:30N 19°07' W 096°02'0 0.0
2017-Jan-10 13:30N 19°07' W 096°02'0 0.0
2017-Jan-10 12:30N 19°07' W 096°02'0 0.0
2017-Jan-10 11:30N 19°07' W 096°02'0 0.0
2017-Jan-10 10:30N 19°07' W 096°02'0 0.0
2017-Jan-10 09:28N 19°07' W 096°02'0 0.0
2017-Jan-10 08:28N 19°07' W 096°02'0 0.0
2017-Jan-10 07:28N 19°07' W 096°02'0 0.0
2017-Jan-10 06:28N 19°07' W 096°02'0 0.0
2017-Jan-10 05:16N 19°07' W 096°02'0 0.0
2017-Jan-10 04:22N 19°07' W 096°02'0 0.0
2017-Jan-10 03:28N 19°07' W 096°02'0 0.0
2017-Jan-10 02:28N 19°07' W 096°02'0 0.0
2017-Jan-10 01:28N 19°07' W 096°02'0 0.0
2017-Jan-10 00:28N 19°07' W 096°02'0 0.0
2017-Jan-09 23:28N 19°07' W 096°02'0 0.0
2017-Jan-09 22:28N 19°07' W 096°02'0 0.0
2017-Jan-09 21:28N 19°07' W 096°02'0 0.0
2017-Jan-09 20:28N 19°07' W 096°02'0 0.0
2017-Jan-09 19:28N 19°07' W 096°02'0 0.0
2017-Jan-09 18:28N 19°07' W 096°02'0 0.0
2017-Jan-09 17:28N 19°07' W 096°02'0 0.0
2017-Jan-09 16:28N 19°07' W 096°02'0 0.0
2017-Jan-09 15:33N 19°07' W 096°02'0 0.0
2017-Jan-09 14:33N 19°07' W 096°02'0 0.0
2017-Jan-09 13:33N 19°07' W 096°02'0 0.0
2017-Jan-09 12:33N 19°07' W 096°02'0 0.0
2017-Jan-09 11:33N 19°07' W 096°02'0 0.0
2017-Jan-09 10:33N 19°07' W 096°02'0 0.0
2017-Jan-09 09:33N 19°07' W 096°02'0 0.0
2017-Jan-09 08:27N 19°07' W 096°02'0 0.0
2017-Jan-09 07:27N 19°07' W 096°02'0 0.0
2017-Jan-09 06:27N 19°07' W 096°02'0 0.0
2017-Jan-09 05:30N 19°07' W 096°02'0 0.0
2017-Jan-09 04:33N 19°07' W 096°02'0 0.0
2017-Jan-09 03:33N 19°07' W 096°02'0 0.0
2017-Jan-09 02:26N 19°07' W 096°02'0 0.0
2017-Jan-09 01:28N 19°07' W 096°02'0 0.0
2017-Jan-09 00:28N 19°07' W 096°02'0 0.0
2017-Jan-08 23:28N 19°07' W 096°02'0 0.0
2017-Jan-08 22:24N 19°07' W 096°02'0 0.0
2017-Jan-08 21:30N 19°07' W 096°02'3 3.5
2017-Jan-08 20:33N 19°10' W 095°60'1212.4
2017-Jan-08 19:33N 19°22' W 096°00'1211.8
2017-Jan-08 18:31N 19°35' W 096°00'13 0.5
2017-Jan-07 16:22N 19°28' W 095°48'3 1.8
2017-Jan-07 14:25N 19°28' W 095°52'2 2.1
2017-Jan-07 13:33N 19°28' W 095°54'1 1.0
2017-Jan-07 12:33N 19°28' W 095°55'1 1.4
2017-Jan-07 11:31N 19°28' W 095°56'1 1.1
2017-Jan-07 10:33N 19°28' W 095°57'1 0.9
2017-Jan-07 09:33N 19°27' W 095°57'2 2.3
2017-Jan-07 08:33N 19°25' W 095°58'4 4.3
2017-Jan-07 07:33N 19°20' W 095°58'7 6.4
2017-Jan-07 06:32N 19°14' W 095°58'7 7.1
2017-Jan-07 05:31N 19°07' W 096°01'1 0.5
2017-Jan-07 04:25N 19°07' W 096°02'0 0.0
2017-Jan-07 03:31N 19°07' W 096°02'0 0.1
2017-Jan-07 02:25N 19°07' W 096°02'0 0.0
2017-Jan-07 01:31N 19°07' W 096°02'0 0.0
2017-Jan-07 00:31N 19°07' W 096°02'0 0.0
2017-Jan-06 23:31N 19°07' W 096°02'0 0.0
2017-Jan-06 22:33N 19°07' W 096°02'0 0.0
2017-Jan-06 21:33N 19°07' W 096°02'0 0.0
2017-Jan-06 20:33N 19°07' W 096°02'0 0.1
2017-Jan-06 19:33N 19°07' W 096°02'0 0.1
2017-Jan-06 18:21N 19°07' W 096°02'0 0.0
2017-Jan-06 17:33N 19°07' W 096°02'0 0.0
2017-Jan-06 16:33N 19°07' W 096°02'0 0.0
2017-Jan-06 15:29N 19°07' W 096°02'0 0.0
2017-Jan-06 14:29N 19°07' W 096°02'0 0.0
2017-Jan-06 13:29N 19°07' W 096°02'0 0.1
2017-Jan-06 12:29N 19°07' W 096°02'0 0.0
2017-Jan-06 11:29N 19°07' W 096°02'0 0.0
2017-Jan-06 10:29N 19°07' W 096°02'0 0.0
2017-Jan-06 09:25N 19°07' W 096°02'0 0.0
2017-Jan-06 08:27N 19°07' W 096°02'0 0.0
2017-Jan-06 07:33N 19°07' W 096°02'0 0.0
2017-Jan-06 06:33N 19°07' W 096°02'0 0.0
2017-Jan-06 05:26N 19°07' W 096°02'0 0.0
2017-Jan-06 04:31N 19°07' W 096°02'0 0.0
2017-Jan-06 03:29N 19°07' W 096°02'0 0.0
2017-Jan-06 02:17N 19°07' W 096°02'0 0.0
2017-Jan-06 01:29N 19°07' W 096°02'0 0.0
2017-Jan-06 00:29N 19°07' W 096°02'0 0.0
2017-Jan-05 23:29N 19°07' W 096°02'0 0.0
2017-Jan-05 22:23N 19°07' W 096°02'0 0.0
2017-Jan-05 21:29N 19°07' W 096°02'0 0.0
2017-Jan-05 20:29N 19°07' W 096°02'0 0.0
2017-Jan-05 19:17N 19°07' W 096°02'0 0.1
2017-Jan-05 18:23N 19°07' W 096°02'0 0.0
2017-Jan-05 17:29N 19°07' W 096°02'0 0.0
2017-Jan-05 16:29N 19°07' W 096°02'0 0.0
2017-Jan-05 15:11N 19°07' W 096°02'0 0.0
2017-Jan-05 13:29N 19°07' W 096°02'0 0.0
2017-Jan-05 12:23N 19°07' W 096°02'0 0.0
2017-Jan-05 11:29N 19°07' W 096°02'0 0.0
2017-Jan-05 10:31N 19°07' W 096°02'0 0.0
2017-Jan-05 09:31N 19°07' W 096°02'0 0.0
2017-Jan-05 08:32N 19°07' W 096°02'0 0.0
2017-Jan-05 07:20N 19°07' W 096°02'0 0.1
2017-Jan-05 06:32N 19°07' W 096°02'0 0.0
2017-Jan-05 05:33N 19°07' W 096°02'0 0.0
2017-Jan-05 04:27N 19°07' W 096°02'0 0.0
2017-Jan-05 03:27N 19°07' W 096°02'0 0.0
2017-Jan-05 02:33N 19°07' W 096°02'0 0.0
2017-Jan-05 01:33N 19°07' W 096°02'0 0.0
2017-Jan-05 00:28N 19°07' W 096°02'0 0.0
2017-Jan-04 23:28N 19°07' W 096°02'0 0.0
2017-Jan-04 22:31N 19°07' W 096°02'0 0.0
2017-Jan-04 21:28N 19°07' W 096°02'0 0.0
2017-Jan-04 20:22N 19°07' W 096°02'0 0.0
2017-Jan-04 19:28N 19°07' W 096°02'0 0.0
2017-Jan-04 18:28N 19°07' W 096°02'0 0.0
2017-Jan-04 17:22N 19°07' W 096°02'0 0.0
2017-Jan-04 16:28N 19°07' W 096°02'0 0.0
2017-Jan-04 15:10N 19°07' W 096°02'0 0.0
2017-Jan-04 14:28N 19°07' W 096°02'0 0.0
2017-Jan-04 13:28N 19°07' W 096°02'0 0.0
2017-Jan-04 12:28N 19°07' W 096°02'0 0.0
2017-Jan-04 11:30N 19°07' W 096°02'0 0.0
2017-Jan-04 10:29N 19°07' W 096°02'0 0.0
2017-Jan-04 09:28N 19°07' W 096°02'0 0.1
2017-Jan-04 08:24N 19°07' W 096°02'0 0.0
2017-Jan-04 07:30N 19°07' W 096°02'0 0.0
2017-Jan-04 06:33N 19°07' W 096°02'0 0.0
2017-Jan-04 05:33N 19°07' W 096°02'0 0.0
2017-Jan-04 04:33N 19°07' W 096°02'0 0.0
2017-Jan-04 03:17N 19°07' W 096°02'0 0.0
2017-Jan-04 02:28N 19°07' W 096°02'0 0.0
2017-Jan-04 01:22N 19°07' W 096°02'0 0.1
2017-Jan-04 00:33N 19°07' W 096°02'7 6.6
2017-Jan-03 23:33N 19°12' W 096°06'2 2.4
2017-Jan-03 22:33N 19°13' W 096°08'0 0.1
2017-Jan-03 21:32N 19°13' W 096°08'0 0.1
2017-Jan-03 20:32N 19°13' W 096°08'0 0.0
2017-Jan-03 19:29N 19°13' W 096°08'0 0.1
2017-Jan-03 18:32N 19°13' W 096°08'  

Dump ship's entire track history